»·PEaware :: N2MZ KSNA-KWHP

N2MZ :: KSNA-KWHP

FLIGHT INFORMATION

Flight Status: Arrived
Operator: Privately registered:
United States
More flights under this callsign
Pilot: Mike Z. (25595)
Aircraft: CESSNA 172 SKYHAWK
(C172)
More flights by this aircraft type
Origin: KSNA John Wayne-Orange Co
United States
Destination: KWHP Whiteman
United States
More flights between these airports :: More routes between these airports
Route: SLI V23 POPPR SMO125R SMO SMO317R CANOG
File this flight plan on PilotEdge
Remarks: TEC CSTP3
Altitude:
(Current/Filed)
4,000ft
Speed:
(Current/Filed)
110kts
Departed: 03-Nov-19 08:12 PM
Arrived: 03-Nov-19 08:56 PM
Distance/Time
Traveled:
44nm/0:44
Distance/Time
To Go:
Arrived

Flight Plot

Page will automatically refresh every two minutes.


Map Options




Map Legend


Flown Route
Filed Route
Departure Airport
Arrival Airport
Navaid (VOR, NDB)
Fix

Horizontal Profiles

Position Reports

Time Latitude Longitude Heading Altitude Ground
Speed
03-Nov-19 19:56 33.671189 -117.868027 211 60ft 0kts
03-Nov-19 19:57 33.671189 -117.868027 211 60ft 0kts
03-Nov-19 19:58 33.671189 -117.868027 210 60ft 0kts
03-Nov-19 19:59 33.671189 -117.868027 210 60ft 0kts
03-Nov-19 20:00 33.671189 -117.868027 210 60ft 0kts
03-Nov-19 20:01 33.671189 -117.868027 210 60ft 0kts
03-Nov-19 20:02 33.671189 -117.868027 210 60ft 0kts
03-Nov-19 20:03 33.671189 -117.868027 210 60ft 0kts
03-Nov-19 20:04 33.671189 -117.868027 210 60ft 0kts
03-Nov-19 20:05 33.671189 -117.868027 210 60ft 0kts
03-Nov-19 20:06 33.671189 -117.868027 210 60ft 0kts
03-Nov-19 20:07 33.672826 -117.867594 43 60ft 22kts
03-Nov-19 20:08 33.678746 -117.864139 28 60ft 33kts
03-Nov-19 20:09 33.679979 -117.863643 300 60ft 0kts
03-Nov-19 20:10 33.679979 -117.863643 300 60ft 0kts
03-Nov-19 20:11 33.679979 -117.863643 300 60ft 0kts
03-Nov-19 20:12 33.674970 -117.867472 209 116ft 73kts
03-Nov-19 20:12 33.661467 -117.881392 234 729ft 75kts
03-Nov-19 20:14 33.646060 -117.906890 231 1518ft 79kts
03-Nov-19 20:14 33.635312 -117.924585 233 2087ft 78kts
03-Nov-19 20:15 33.622670 -117.945236 233 2729ft 76kts
03-Nov-19 20:17 33.606764 -117.968975 229 3351ft 86kts
03-Nov-19 20:17 33.597960 -117.988896 287 3833ft 83kts
03-Nov-19 20:19 33.611756 -118.022995 295 4014ft 120kts
03-Nov-19 20:19 33.624401 -118.052954 298 3949ft 110kts
03-Nov-19 20:20 33.638178 -118.083513 298 4033ft 113kts
03-Nov-19 20:22 33.666397 -118.111882 336 4017ft 120kts
03-Nov-19 20:22 33.688663 -118.131891 318 4017ft 120kts
03-Nov-19 20:23 33.713757 -118.159035 317 4017ft 121kts
03-Nov-19 20:24 33.738204 -118.186803 315 4017ft 121kts
03-Nov-19 20:25 33.764795 -118.211718 322 4017ft 121kts
03-Nov-19 20:26 33.790793 -118.236303 321 4016ft 117kts
03-Nov-19 20:27 33.815719 -118.260860 320 4016ft 114kts
03-Nov-19 20:28 33.839717 -118.285435 319 4017ft 112kts
03-Nov-19 20:29 33.863124 -118.310362 318 4017ft 112kts
03-Nov-19 20:30 33.887827 -118.333401 322 4017ft 112kts
03-Nov-19 20:31 33.912525 -118.356575 321 4017ft 112kts
03-Nov-19 20:32 33.936829 -118.380310 320 4017ft 112kts
03-Nov-19 20:33 33.960704 -118.404570 319 4017ft 112kts
03-Nov-19 20:34 33.984244 -118.429470 317 4017ft 112kts
03-Nov-19 20:35 34.007603 -118.454598 320 4017ft 112kts
03-Nov-19 20:36 34.031796 -118.478465 322 4017ft 112kts
03-Nov-19 20:37 34.060004 -118.494381 339 4017ft 112kts
03-Nov-19 20:38 34.089173 -118.507927 337 4017ft 112kts
03-Nov-19 20:39 34.117781 -118.523431 335 4017ft 113kts
03-Nov-19 20:40 34.146147 -118.540035 333 4017ft 113kts
03-Nov-19 20:41 34.174189 -118.557179 333 4017ft 113kts
03-Nov-19 20:42 34.201498 -118.575888 329 4017ft 113kts
03-Nov-19 20:43 34.227277 -118.597057 292 4015ft 112kts
03-Nov-19 20:44 34.221148 -118.633884 242 3865ft 124kts
03-Nov-19 20:45 34.204874 -118.667688 282 3774ft 115kts
03-Nov-19 20:46 34.220549 -118.657680 94 3832ft 107kts
03-Nov-19 20:47 34.222506 -118.622580 83 3970ft 102kts
03-Nov-19 20:48 34.225812 -118.586739 91 3832ft 119kts
03-Nov-19 20:49 34.223810 -118.549657 83 3185ft 90kts
03-Nov-19 20:50 34.223231 -118.523068 86 3181ft 82kts
03-Nov-19 20:51 34.224581 -118.490353 63 3313ft 102kts
03-Nov-19 20:52 34.238057 -118.458007 64 2746ft 101kts
03-Nov-19 20:53 34.251661 -118.430238 31 1780ft 85kts
03-Nov-19 20:54 34.267075 -118.426056 103 1419ft 69kts
03-Nov-19 20:55 34.257999 -118.411933 123 984ft 17kts
03-Nov-19 20:56 34.257934 -118.411423 60 983ft 0kts
03-Nov-19 20:57 34.259692 -118.412762 54 993ft 10kts
03-Nov-19 20:58 34.259768 -118.412397 137 993ft 0kts

Navigation Log

Ident Type
Flight plan parsing failed, navigation log unavailable